Crest Hill, Illinois
Current Conditions -  °F | °C
As of 3:35 AM on Friday 31 Oct 2014 (Local Time) from KJOT Reporting Station
Light Rain Light Rain  
Wind Chill: 37°   Ceiling: 2300
Heat Index: 44°   Visibility: 10mi
Dew Point: 36°   Wind: 16mph
Humidity: 72%   Direction: 340°NNW
Pressure: 30.04"   Gusts: 25mph
Location:  41.55°N, 88.12°W
Report Text: KJOT 310835Z AUTO 34014G22KT 10SM -RA BKN023 BKN029 OVC043 07/02 A3004 RMK AO2 T00670020
Loading
Personal Weather Stations






























Interactive Weather Map
Tropical Storm Tracking
New forecast layout! Learn more

10-Day Weather Forecast

Advertisements
Track Severe Weather on mobile